Terminal Aerodrome Forecast
Issued by NWS Twin Cities, MN

Home | Current Version | Previous Version | Graphics & Text | Print | Product List | Glossary On
Versions: 1 2 3 4 5 6 7 8 9 10 11 12 13 14 15 16 17
000
FTUS43 KMPX 211300 AAA
TAFEAU
TAF AMD
KEAU 211358Z 2114/2212 06004KT P6SM FEW020
      TEMPO 2114/2116 BKN020
     FM211600 10008KT P6SM FEW040
     FM220000 12005KT P6SM SKC=

USA.gov is the U.S. government's official web portal to all federal, state and local government web resources and services.